<?xml version="1.0" encoding="UTF-8" standalone="no" ?>
<gpx xmlns="http://www.topografix.com/GPX/1/1" xmlns:xsi="http://www.w3.org/2001/XMLSchema-instance" xsi:schemaLocation="http://www.topografix.com/GPX/1/1 http://www.topografix.com/GPX/1/1/gpx.xsd" version="1.1" creator="VisuGPX - https://www.visugpx.com">
  <metadata>
    <name>Reymure, post covid.</name>
    <desc><![CDATA[Du parfaitement plat, vu la forme.
La derniere au dela des 10km avant quatre semaines...

Jean.]]></desc>
  </metadata>
  <trk>
    <name><![CDATA[2021-04-03 19:24:23]]></name>
    <trkseg>
      <trkpt lat="45.07552" lon="5.68906">
        <ele>277.48</ele>
        <time>2021-04-03T13:13:21Z</time>
      </trkpt>
      <trkpt lat="45.07549" lon="5.68912">
        <ele>278.44</ele>
        <time>2021-04-03T13:13:48Z</time>
      </trkpt>
      <trkpt lat="45.07549" lon="5.68912">
        <ele>278.44</ele>
        <time>2021-04-03T13:14:01Z</time>
      </trkpt>
      <trkpt lat="45.07546" lon="5.68924">
        <ele>277.96</ele>
        <time>2021-04-03T13:14:13Z</time>
      </trkpt>
      <trkpt lat="45.0754" lon="5.68941">
        <ele>277.96</ele>
        <time>2021-04-03T13:14:29Z</time>
      </trkpt>
      <trkpt lat="45.07538" lon="5.68946">
        <ele>278.44</ele>
        <time>2021-04-03T13:14:33Z</time>
      </trkpt>
      <trkpt lat="45.07525" lon="5.68982">
        <ele>279.88</ele>
        <time>2021-04-03T13:14:59Z</time>
      </trkpt>
      <trkpt lat="45.07512" lon="5.6901">
        <ele>281.32</ele>
        <time>2021-04-03T13:15:19Z</time>
      </trkpt>
      <trkpt lat="45.07499" lon="5.69039">
        <ele>279.88</ele>
        <time>2021-04-03T13:15:41Z</time>
      </trkpt>
      <trkpt lat="45.07489" lon="5.69066">
        <ele>277.96</ele>
        <time>2021-04-03T13:16:03Z</time>
      </trkpt>
      <trkpt lat="45.0748" lon="5.69101">
        <ele>277.48</ele>
        <time>2021-04-03T13:16:29Z</time>
      </trkpt>
      <trkpt lat="45.07467" lon="5.69136">
        <ele>275.56</ele>
        <time>2021-04-03T13:16:55Z</time>
      </trkpt>
      <trkpt lat="45.07454" lon="5.69165">
        <ele>276.52</ele>
        <time>2021-04-03T13:17:18Z</time>
      </trkpt>
      <trkpt lat="45.07439" lon="5.69197">
        <ele>279.88</ele>
        <time>2021-04-03T13:17:43Z</time>
      </trkpt>
      <trkpt lat="45.07424" lon="5.69223">
        <ele>281.32</ele>
        <time>2021-04-03T13:18:06Z</time>
      </trkpt>
      <trkpt lat="45.07406" lon="5.69248">
        <ele>280.36</ele>
        <time>2021-04-03T13:18:29Z</time>
      </trkpt>
      <trkpt lat="45.07392" lon="5.69271">
        <ele>280.36</ele>
        <time>2021-04-03T13:18:52Z</time>
      </trkpt>
      <trkpt lat="45.07385" lon="5.69292">
        <ele>278.44</ele>
        <time>2021-04-03T13:19:10Z</time>
      </trkpt>
      <trkpt lat="45.07372" lon="5.69324">
        <ele>279.88</ele>
        <time>2021-04-03T13:19:33Z</time>
      </trkpt>
      <trkpt lat="45.07365" lon="5.69345">
        <ele>279.88</ele>
        <time>2021-04-03T13:19:54Z</time>
      </trkpt>
      <trkpt lat="45.0735" lon="5.69382">
        <ele>284.21</ele>
        <time>2021-04-03T13:20:18Z</time>
      </trkpt>
      <trkpt lat="45.07338" lon="5.69399">
        <ele>281.8</ele>
        <time>2021-04-03T13:20:40Z</time>
      </trkpt>
      <trkpt lat="45.07318" lon="5.69377">
        <ele>282.77</ele>
        <time>2021-04-03T13:21:04Z</time>
      </trkpt>
      <trkpt lat="45.07297" lon="5.69359">
        <ele>285.17</ele>
        <time>2021-04-03T13:21:27Z</time>
      </trkpt>
      <trkpt lat="45.07279" lon="5.69341">
        <ele>284.69</ele>
        <time>2021-04-03T13:21:51Z</time>
      </trkpt>
      <trkpt lat="45.07259" lon="5.69317">
        <ele>289.01</ele>
        <time>2021-04-03T13:22:13Z</time>
      </trkpt>
      <trkpt lat="45.07246" lon="5.69309">
        <ele>291.42</ele>
        <time>2021-04-03T13:22:35Z</time>
      </trkpt>
      <trkpt lat="45.07236" lon="5.69301">
        <ele>293.82</ele>
        <time>2021-04-03T13:22:59Z</time>
      </trkpt>
      <trkpt lat="45.0722" lon="5.6931">
        <ele>281.8</ele>
        <time>2021-04-03T13:23:18Z</time>
      </trkpt>
      <trkpt lat="45.07208" lon="5.69325">
        <ele>279.4</ele>
        <time>2021-04-03T13:23:41Z</time>
      </trkpt>
      <trkpt lat="45.07202" lon="5.69339">
        <ele>279.4</ele>
        <time>2021-04-03T13:24:03Z</time>
      </trkpt>
      <trkpt lat="45.0719" lon="5.69363">
        <ele>277</ele>
        <time>2021-04-03T13:24:24Z</time>
      </trkpt>
      <trkpt lat="45.0718" lon="5.69385">
        <ele>272.19</ele>
        <time>2021-04-03T13:24:43Z</time>
      </trkpt>
      <trkpt lat="45.07166" lon="5.69409">
        <ele>270.27</ele>
        <time>2021-04-03T13:25:05Z</time>
      </trkpt>
      <trkpt lat="45.0715" lon="5.69443">
        <ele>276.04</ele>
        <time>2021-04-03T13:25:30Z</time>
      </trkpt>
      <trkpt lat="45.07136" lon="5.69467">
        <ele>277</ele>
        <time>2021-04-03T13:25:52Z</time>
      </trkpt>
      <trkpt lat="45.07126" lon="5.69494">
        <ele>277</ele>
        <time>2021-04-03T13:26:13Z</time>
      </trkpt>
      <trkpt lat="45.0711" lon="5.69518">
        <ele>278.44</ele>
        <time>2021-04-03T13:26:38Z</time>
      </trkpt>
      <trkpt lat="45.07091" lon="5.69536">
        <ele>279.4</ele>
        <time>2021-04-03T13:27:01Z</time>
      </trkpt>
      <trkpt lat="45.07091" lon="5.6954">
        <ele>280.36</ele>
        <time>2021-04-03T13:27:20Z</time>
      </trkpt>
      <trkpt lat="45.07085" lon="5.69536">
        <ele>277.96</ele>
        <time>2021-04-03T13:27:43Z</time>
      </trkpt>
      <trkpt lat="45.07065" lon="5.69522">
        <ele>277.48</ele>
        <time>2021-04-03T13:28:04Z</time>
      </trkpt>
      <trkpt lat="45.07045" lon="5.69508">
        <ele>278.92</ele>
        <time>2021-04-03T13:28:26Z</time>
      </trkpt>
      <trkpt lat="45.07025" lon="5.69497">
        <ele>277.96</ele>
        <time>2021-04-03T13:28:45Z</time>
      </trkpt>
      <trkpt lat="45.07003" lon="5.69491">
        <ele>277.48</ele>
        <time>2021-04-03T13:29:09Z</time>
      </trkpt>
      <trkpt lat="45.06987" lon="5.69506">
        <ele>276.52</ele>
        <time>2021-04-03T13:29:26Z</time>
      </trkpt>
      <trkpt lat="45.06966" lon="5.69531">
        <ele>278.92</ele>
        <time>2021-04-03T13:29:48Z</time>
      </trkpt>
      <trkpt lat="45.06954" lon="5.69554">
        <ele>277.48</ele>
        <time>2021-04-03T13:30:12Z</time>
      </trkpt>
      <trkpt lat="45.06943" lon="5.69578">
        <ele>276.52</ele>
        <time>2021-04-03T13:30:30Z</time>
      </trkpt>
      <trkpt lat="45.06934" lon="5.69603">
        <ele>274.59</ele>
        <time>2021-04-03T13:30:51Z</time>
      </trkpt>
      <trkpt lat="45.06928" lon="5.69621">
        <ele>275.07</ele>
        <time>2021-04-03T13:31:09Z</time>
      </trkpt>
      <trkpt lat="45.06919" lon="5.69646">
        <ele>275.56</ele>
        <time>2021-04-03T13:31:28Z</time>
      </trkpt>
      <trkpt lat="45.06911" lon="5.69669">
        <ele>276.52</ele>
        <time>2021-04-03T13:31:47Z</time>
      </trkpt>
      <trkpt lat="45.06901" lon="5.69697">
        <ele>277.48</ele>
        <time>2021-04-03T13:32:07Z</time>
      </trkpt>
      <trkpt lat="45.06899" lon="5.69702">
        <ele>277.96</ele>
        <time>2021-04-03T13:32:25Z</time>
      </trkpt>
      <trkpt lat="45.06888" lon="5.69714">
        <ele>278.44</ele>
        <time>2021-04-03T13:32:43Z</time>
      </trkpt>
      <trkpt lat="45.06872" lon="5.69722">
        <ele>277.48</ele>
        <time>2021-04-03T13:33:03Z</time>
      </trkpt>
      <trkpt lat="45.0685" lon="5.69726">
        <ele>277.96</ele>
        <time>2021-04-03T13:33:25Z</time>
      </trkpt>
      <trkpt lat="45.06833" lon="5.69727">
        <ele>274.59</ele>
        <time>2021-04-03T13:33:45Z</time>
      </trkpt>
      <trkpt lat="45.06811" lon="5.69731">
        <ele>274.11</ele>
        <time>2021-04-03T13:34:05Z</time>
      </trkpt>
      <trkpt lat="45.06796" lon="5.69733">
        <ele>269.31</ele>
        <time>2021-04-03T13:34:21Z</time>
      </trkpt>
      <trkpt lat="45.06777" lon="5.6973">
        <ele>269.31</ele>
        <time>2021-04-03T13:34:42Z</time>
      </trkpt>
      <trkpt lat="45.06762" lon="5.69734">
        <ele>272.19</ele>
        <time>2021-04-03T13:35:00Z</time>
      </trkpt>
      <trkpt lat="45.06749" lon="5.6976">
        <ele>276.04</ele>
        <time>2021-04-03T13:35:20Z</time>
      </trkpt>
      <trkpt lat="45.0674" lon="5.6979">
        <ele>281.32</ele>
        <time>2021-04-03T13:35:39Z</time>
      </trkpt>
      <trkpt lat="45.06733" lon="5.69818">
        <ele>278.92</ele>
        <time>2021-04-03T13:36:00Z</time>
      </trkpt>
      <trkpt lat="45.06725" lon="5.69844">
        <ele>278.44</ele>
        <time>2021-04-03T13:36:21Z</time>
      </trkpt>
      <trkpt lat="45.06717" lon="5.69871">
        <ele>279.4</ele>
        <time>2021-04-03T13:36:39Z</time>
      </trkpt>
      <trkpt lat="45.06709" lon="5.69896">
        <ele>278.92</ele>
        <time>2021-04-03T13:36:57Z</time>
      </trkpt>
      <trkpt lat="45.06702" lon="5.69924">
        <ele>277.96</ele>
        <time>2021-04-03T13:37:19Z</time>
      </trkpt>
      <trkpt lat="45.06693" lon="5.69949">
        <ele>275.56</ele>
        <time>2021-04-03T13:37:39Z</time>
      </trkpt>
      <trkpt lat="45.06684" lon="5.69975">
        <ele>274.11</ele>
        <time>2021-04-03T13:37:59Z</time>
      </trkpt>
      <trkpt lat="45.06676" lon="5.70001">
        <ele>275.07</ele>
        <time>2021-04-03T13:38:20Z</time>
      </trkpt>
      <trkpt lat="45.06664" lon="5.70025">
        <ele>275.56</ele>
        <time>2021-04-03T13:38:45Z</time>
      </trkpt>
      <trkpt lat="45.06655" lon="5.70053">
        <ele>273.63</ele>
        <time>2021-04-03T13:39:06Z</time>
      </trkpt>
      <trkpt lat="45.06648" lon="5.70076">
        <ele>273.63</ele>
        <time>2021-04-03T13:39:26Z</time>
      </trkpt>
      <trkpt lat="45.06642" lon="5.70088">
        <ele>274.11</ele>
        <time>2021-04-03T13:39:50Z</time>
      </trkpt>
      <trkpt lat="45.06631" lon="5.7012">
        <ele>273.15</ele>
        <time>2021-04-03T13:40:15Z</time>
      </trkpt>
      <trkpt lat="45.06631" lon="5.70132">
        <ele>272.67</ele>
        <time>2021-04-03T13:40:29Z</time>
      </trkpt>
      <trkpt lat="45.06623" lon="5.70156">
        <ele>273.63</ele>
        <time>2021-04-03T13:40:48Z</time>
      </trkpt>
      <trkpt lat="45.06618" lon="5.70174">
        <ele>273.15</ele>
        <time>2021-04-03T13:41:04Z</time>
      </trkpt>
      <trkpt lat="45.06607" lon="5.70198">
        <ele>275.07</ele>
        <time>2021-04-03T13:41:26Z</time>
      </trkpt>
      <trkpt lat="45.06599" lon="5.70222">
        <ele>272.67</ele>
        <time>2021-04-03T13:41:47Z</time>
      </trkpt>
      <trkpt lat="45.06593" lon="5.70247">
        <ele>274.59</ele>
        <time>2021-04-03T13:42:07Z</time>
      </trkpt>
      <trkpt lat="45.06582" lon="5.70268">
        <ele>276.52</ele>
        <time>2021-04-03T13:42:31Z</time>
      </trkpt>
      <trkpt lat="45.06571" lon="5.70287">
        <ele>275.56</ele>
        <time>2021-04-03T13:42:55Z</time>
      </trkpt>
      <trkpt lat="45.06558" lon="5.70278">
        <ele>274.11</ele>
        <time>2021-04-03T13:43:14Z</time>
      </trkpt>
      <trkpt lat="45.06551" lon="5.70268">
        <ele>278.44</ele>
        <time>2021-04-03T13:43:37Z</time>
      </trkpt>
      <trkpt lat="45.06541" lon="5.70261">
        <ele>280.36</ele>
        <time>2021-04-03T13:44:02Z</time>
      </trkpt>
      <trkpt lat="45.06524" lon="5.70245">
        <ele>281.8</ele>
        <time>2021-04-03T13:44:24Z</time>
      </trkpt>
      <trkpt lat="45.06512" lon="5.70235">
        <ele>283.73</ele>
        <time>2021-04-03T13:44:45Z</time>
      </trkpt>
      <trkpt lat="45.06495" lon="5.7022">
        <ele>282.77</ele>
        <time>2021-04-03T13:45:10Z</time>
      </trkpt>
      <trkpt lat="45.0648" lon="5.70204">
        <ele>282.28</ele>
        <time>2021-04-03T13:45:32Z</time>
      </trkpt>
      <trkpt lat="45.06461" lon="5.70187">
        <ele>284.21</ele>
        <time>2021-04-03T13:45:57Z</time>
      </trkpt>
      <trkpt lat="45.06447" lon="5.70173">
        <ele>283.25</ele>
        <time>2021-04-03T13:46:18Z</time>
      </trkpt>
      <trkpt lat="45.06434" lon="5.70157">
        <ele>283.73</ele>
        <time>2021-04-03T13:46:37Z</time>
      </trkpt>
      <trkpt lat="45.06417" lon="5.70137">
        <ele>283.73</ele>
        <time>2021-04-03T13:47:00Z</time>
      </trkpt>
      <trkpt lat="45.06396" lon="5.70117">
        <ele>282.77</ele>
        <time>2021-04-03T13:47:26Z</time>
      </trkpt>
      <trkpt lat="45.06381" lon="5.70101">
        <ele>282.28</ele>
        <time>2021-04-03T13:47:48Z</time>
      </trkpt>
      <trkpt lat="45.06367" lon="5.70087">
        <ele>281.32</ele>
        <time>2021-04-03T13:48:11Z</time>
      </trkpt>
      <trkpt lat="45.0635" lon="5.70068">
        <ele>284.21</ele>
        <time>2021-04-03T13:48:34Z</time>
      </trkpt>
      <trkpt lat="45.06334" lon="5.70052">
        <ele>284.69</ele>
        <time>2021-04-03T13:48:55Z</time>
      </trkpt>
      <trkpt lat="45.0632" lon="5.70043">
        <ele>286.61</ele>
        <time>2021-04-03T13:49:16Z</time>
      </trkpt>
      <trkpt lat="45.06304" lon="5.70026">
        <ele>285.17</ele>
        <time>2021-04-03T13:49:39Z</time>
      </trkpt>
      <trkpt lat="45.06287" lon="5.70006">
        <ele>283.25</ele>
        <time>2021-04-03T13:50:01Z</time>
      </trkpt>
      <trkpt lat="45.06282" lon="5.69998">
        <ele>286.61</ele>
        <time>2021-04-03T13:50:24Z</time>
      </trkpt>
      <trkpt lat="45.06271" lon="5.6999">
        <ele>289.01</ele>
        <time>2021-04-03T13:50:50Z</time>
      </trkpt>
      <trkpt lat="45.06258" lon="5.69977">
        <ele>287.09</ele>
        <time>2021-04-03T13:51:14Z</time>
      </trkpt>
      <trkpt lat="45.06241" lon="5.69959">
        <ele>286.61</ele>
        <time>2021-04-03T13:51:35Z</time>
      </trkpt>
      <trkpt lat="45.06222" lon="5.69945">
        <ele>282.77</ele>
        <time>2021-04-03T13:51:59Z</time>
      </trkpt>
      <trkpt lat="45.06205" lon="5.69927">
        <ele>284.69</ele>
        <time>2021-04-03T13:52:26Z</time>
      </trkpt>
      <trkpt lat="45.06202" lon="5.69917">
        <ele>288.05</ele>
        <time>2021-04-03T13:52:46Z</time>
      </trkpt>
      <trkpt lat="45.06208" lon="5.69922">
        <ele>295.74</ele>
        <time>2021-04-03T13:53:14Z</time>
      </trkpt>
      <trkpt lat="45.06201" lon="5.6991">
        <ele>293.82</ele>
        <time>2021-04-03T13:53:40Z</time>
      </trkpt>
      <trkpt lat="45.06198" lon="5.69912">
        <ele>285.17</ele>
        <time>2021-04-03T13:54:08Z</time>
      </trkpt>
      <trkpt lat="45.062" lon="5.69918">
        <ele>283.73</ele>
        <time>2021-04-03T13:54:39Z</time>
      </trkpt>
      <trkpt lat="45.06192" lon="5.69911">
        <ele>282.28</ele>
        <time>2021-04-03T13:55:06Z</time>
      </trkpt>
      <trkpt lat="45.06174" lon="5.6989">
        <ele>279.4</ele>
        <time>2021-04-03T13:55:33Z</time>
      </trkpt>
      <trkpt lat="45.06156" lon="5.69874">
        <ele>280.84</ele>
        <time>2021-04-03T13:55:57Z</time>
      </trkpt>
      <trkpt lat="45.06144" lon="5.69861">
        <ele>282.77</ele>
        <time>2021-04-03T13:56:19Z</time>
      </trkpt>
      <trkpt lat="45.0614" lon="5.69859">
        <ele>278.44</ele>
        <time>2021-04-03T13:56:45Z</time>
      </trkpt>
      <trkpt lat="45.06117" lon="5.69835">
        <ele>274.59</ele>
        <time>2021-04-03T13:57:08Z</time>
      </trkpt>
      <trkpt lat="45.06102" lon="5.69821">
        <ele>273.63</ele>
        <time>2021-04-03T13:57:33Z</time>
      </trkpt>
      <trkpt lat="45.06088" lon="5.69809">
        <ele>276.04</ele>
        <time>2021-04-03T13:57:56Z</time>
      </trkpt>
      <trkpt lat="45.06078" lon="5.69799">
        <ele>274.59</ele>
        <time>2021-04-03T13:58:21Z</time>
      </trkpt>
      <trkpt lat="45.06064" lon="5.6978">
        <ele>273.15</ele>
        <time>2021-04-03T13:58:43Z</time>
      </trkpt>
      <trkpt lat="45.06047" lon="5.69766">
        <ele>275.56</ele>
        <time>2021-04-03T13:59:07Z</time>
      </trkpt>
      <trkpt lat="45.06032" lon="5.6975">
        <ele>278.44</ele>
        <time>2021-04-03T13:59:29Z</time>
      </trkpt>
      <trkpt lat="45.06016" lon="5.69721">
        <ele>278.44</ele>
        <time>2021-04-03T13:59:56Z</time>
      </trkpt>
      <trkpt lat="45.06009" lon="5.69714">
        <ele>275.07</ele>
        <time>2021-04-03T14:00:19Z</time>
      </trkpt>
      <trkpt lat="45.06014" lon="5.69696">
        <ele>279.4</ele>
        <time>2021-04-03T14:00:41Z</time>
      </trkpt>
      <trkpt lat="45.06011" lon="5.69671">
        <ele>279.88</ele>
        <time>2021-04-03T14:01:04Z</time>
      </trkpt>
      <trkpt lat="45.06008" lon="5.69631">
        <ele>284.21</ele>
        <time>2021-04-03T14:01:30Z</time>
      </trkpt>
      <trkpt lat="45.06005" lon="5.69608">
        <ele>284.21</ele>
        <time>2021-04-03T14:01:49Z</time>
      </trkpt>
      <trkpt lat="45.06006" lon="5.69575">
        <ele>287.57</ele>
        <time>2021-04-03T14:02:13Z</time>
      </trkpt>
      <trkpt lat="45.06008" lon="5.69545">
        <ele>290.94</ele>
        <time>2021-04-03T14:02:38Z</time>
      </trkpt>
      <trkpt lat="45.06013" lon="5.69532">
        <ele>289.97</ele>
        <time>2021-04-03T14:03:00Z</time>
      </trkpt>
      <trkpt lat="45.06017" lon="5.6952">
        <ele>293.82</ele>
        <time>2021-04-03T14:03:21Z</time>
      </trkpt>
      <trkpt lat="45.06017" lon="5.69502">
        <ele>293.34</ele>
        <time>2021-04-03T14:03:44Z</time>
      </trkpt>
      <trkpt lat="45.06019" lon="5.69475">
        <ele>293.34</ele>
        <time>2021-04-03T14:04:11Z</time>
      </trkpt>
      <trkpt lat="45.06019" lon="5.6945">
        <ele>292.38</ele>
        <time>2021-04-03T14:04:37Z</time>
      </trkpt>
      <trkpt lat="45.06022" lon="5.69434">
        <ele>290.46</ele>
        <time>2021-04-03T14:05:02Z</time>
      </trkpt>
      <trkpt lat="45.06021" lon="5.69418">
        <ele>292.38</ele>
        <time>2021-04-03T14:05:21Z</time>
      </trkpt>
      <trkpt lat="45.06021" lon="5.69398">
        <ele>292.38</ele>
        <time>2021-04-03T14:05:42Z</time>
      </trkpt>
      <trkpt lat="45.06024" lon="5.694">
        <ele>294.3</ele>
        <time>2021-04-03T14:06:06Z</time>
      </trkpt>
      <trkpt lat="45.06026" lon="5.69391">
        <ele>295.74</ele>
        <time>2021-04-03T14:06:28Z</time>
      </trkpt>
      <trkpt lat="45.06024" lon="5.6938">
        <ele>295.26</ele>
        <time>2021-04-03T14:06:49Z</time>
      </trkpt>
      <trkpt lat="45.06026" lon="5.69358">
        <ele>294.3</ele>
        <time>2021-04-03T14:07:12Z</time>
      </trkpt>
      <trkpt lat="45.06028" lon="5.69335">
        <ele>293.82</ele>
        <time>2021-04-03T14:07:33Z</time>
      </trkpt>
      <trkpt lat="45.06031" lon="5.69311">
        <ele>293.34</ele>
        <time>2021-04-03T14:07:55Z</time>
      </trkpt>
      <trkpt lat="45.06037" lon="5.69277">
        <ele>294.78</ele>
        <time>2021-04-03T14:08:22Z</time>
      </trkpt>
      <trkpt lat="45.06041" lon="5.69237">
        <ele>296.22</ele>
        <time>2021-04-03T14:08:48Z</time>
      </trkpt>
      <trkpt lat="45.06041" lon="5.69218">
        <ele>297.18</ele>
        <time>2021-04-03T14:09:13Z</time>
      </trkpt>
      <trkpt lat="45.06039" lon="5.69177">
        <ele>297.67</ele>
        <time>2021-04-03T14:09:39Z</time>
      </trkpt>
      <trkpt lat="45.06031" lon="5.69142">
        <ele>294.78</ele>
        <time>2021-04-03T14:10:06Z</time>
      </trkpt>
      <trkpt lat="45.06022" lon="5.69104">
        <ele>293.34</ele>
        <time>2021-04-03T14:10:31Z</time>
      </trkpt>
      <trkpt lat="45.06012" lon="5.69077">
        <ele>290.94</ele>
        <time>2021-04-03T14:10:57Z</time>
      </trkpt>
      <trkpt lat="45.05993" lon="5.69045">
        <ele>289.49</ele>
        <time>2021-04-03T14:11:21Z</time>
      </trkpt>
      <trkpt lat="45.05983" lon="5.69033">
        <ele>287.57</ele>
        <time>2021-04-03T14:11:42Z</time>
      </trkpt>
      <trkpt lat="45.05963" lon="5.69007">
        <ele>291.42</ele>
        <time>2021-04-03T14:12:09Z</time>
      </trkpt>
      <trkpt lat="45.05942" lon="5.6898">
        <ele>287.09</ele>
        <time>2021-04-03T14:12:37Z</time>
      </trkpt>
      <trkpt lat="45.05921" lon="5.68953">
        <ele>287.09</ele>
        <time>2021-04-03T14:13:07Z</time>
      </trkpt>
      <trkpt lat="45.05902" lon="5.68928">
        <ele>289.01</ele>
        <time>2021-04-03T14:13:34Z</time>
      </trkpt>
      <trkpt lat="45.05894" lon="5.68917">
        <ele>289.49</ele>
        <time>2021-04-03T14:13:55Z</time>
      </trkpt>
      <trkpt lat="45.05895" lon="5.6892">
        <ele>290.46</ele>
        <time>2021-04-03T14:14:22Z</time>
      </trkpt>
      <trkpt lat="45.05892" lon="5.68917">
        <ele>289.49</ele>
        <time>2021-04-03T14:14:53Z</time>
      </trkpt>
      <trkpt lat="45.05894" lon="5.68916">
        <ele>291.42</ele>
        <time>2021-04-03T14:15:29Z</time>
      </trkpt>
      <trkpt lat="45.05888" lon="5.68915">
        <ele>290.46</ele>
        <time>2021-04-03T14:15:57Z</time>
      </trkpt>
      <trkpt lat="45.05881" lon="5.68909">
        <ele>288.53</ele>
        <time>2021-04-03T14:16:17Z</time>
      </trkpt>
      <trkpt lat="45.05864" lon="5.68894">
        <ele>286.61</ele>
        <time>2021-04-03T14:16:38Z</time>
      </trkpt>
      <trkpt lat="45.05844" lon="5.68864">
        <ele>287.09</ele>
        <time>2021-04-03T14:17:07Z</time>
      </trkpt>
      <trkpt lat="45.0584" lon="5.68858">
        <ele>286.61</ele>
        <time>2021-04-03T14:17:29Z</time>
      </trkpt>
      <trkpt lat="45.05829" lon="5.68844">
        <ele>286.13</ele>
        <time>2021-04-03T14:17:48Z</time>
      </trkpt>
      <trkpt lat="45.05811" lon="5.68826">
        <ele>285.65</ele>
        <time>2021-04-03T14:18:14Z</time>
      </trkpt>
      <trkpt lat="45.05796" lon="5.688">
        <ele>284.21</ele>
        <time>2021-04-03T14:18:37Z</time>
      </trkpt>
      <trkpt lat="45.05778" lon="5.68779">
        <ele>284.69</ele>
        <time>2021-04-03T14:19:01Z</time>
      </trkpt>
      <trkpt lat="45.05758" lon="5.68754">
        <ele>285.17</ele>
        <time>2021-04-03T14:19:27Z</time>
      </trkpt>
      <trkpt lat="45.05739" lon="5.68729">
        <ele>286.61</ele>
        <time>2021-04-03T14:19:53Z</time>
      </trkpt>
      <trkpt lat="45.05726" lon="5.68705">
        <ele>285.65</ele>
        <time>2021-04-03T14:20:15Z</time>
      </trkpt>
      <trkpt lat="45.05721" lon="5.68664">
        <ele>285.65</ele>
        <time>2021-04-03T14:20:38Z</time>
      </trkpt>
      <trkpt lat="45.05723" lon="5.68638">
        <ele>284.69</ele>
        <time>2021-04-03T14:20:58Z</time>
      </trkpt>
      <trkpt lat="45.05734" lon="5.68614">
        <ele>283.25</ele>
        <time>2021-04-03T14:21:21Z</time>
      </trkpt>
      <trkpt lat="45.05761" lon="5.68594">
        <ele>281.8</ele>
        <time>2021-04-03T14:21:48Z</time>
      </trkpt>
      <trkpt lat="45.05785" lon="5.68582">
        <ele>279.88</ele>
        <time>2021-04-03T14:22:14Z</time>
      </trkpt>
      <trkpt lat="45.05805" lon="5.68573">
        <ele>280.36</ele>
        <time>2021-04-03T14:22:35Z</time>
      </trkpt>
      <trkpt lat="45.058" lon="5.68553">
        <ele>280.84</ele>
        <time>2021-04-03T14:22:53Z</time>
      </trkpt>
      <trkpt lat="45.05792" lon="5.68546">
        <ele>279.88</ele>
        <time>2021-04-03T14:23:11Z</time>
      </trkpt>
      <trkpt lat="45.05785" lon="5.68509">
        <ele>279.4</ele>
        <time>2021-04-03T14:23:36Z</time>
      </trkpt>
      <trkpt lat="45.05778" lon="5.68469">
        <ele>282.28</ele>
        <time>2021-04-03T14:24:00Z</time>
      </trkpt>
      <trkpt lat="45.05771" lon="5.6844">
        <ele>282.77</ele>
        <time>2021-04-03T14:24:24Z</time>
      </trkpt>
      <trkpt lat="45.05764" lon="5.68407">
        <ele>282.77</ele>
        <time>2021-04-03T14:24:49Z</time>
      </trkpt>
      <trkpt lat="45.05763" lon="5.68381">
        <ele>283.73</ele>
        <time>2021-04-03T14:25:07Z</time>
      </trkpt>
      <trkpt lat="45.05769" lon="5.68347">
        <ele>286.13</ele>
        <time>2021-04-03T14:25:29Z</time>
      </trkpt>
      <trkpt lat="45.05775" lon="5.68319">
        <ele>287.57</ele>
        <time>2021-04-03T14:25:49Z</time>
      </trkpt>
      <trkpt lat="45.05775" lon="5.68295">
        <ele>289.01</ele>
        <time>2021-04-03T14:26:07Z</time>
      </trkpt>
      <trkpt lat="45.05776" lon="5.68294">
        <ele>289.49</ele>
        <time>2021-04-03T14:26:08Z</time>
      </trkpt>
      <trkpt lat="45.05781" lon="5.68276">
        <ele>289.01</ele>
        <time>2021-04-03T14:26:23Z</time>
      </trkpt>
      <trkpt lat="45.05796" lon="5.68259">
        <ele>286.61</ele>
        <time>2021-04-03T14:26:45Z</time>
      </trkpt>
      <trkpt lat="45.05812" lon="5.68235">
        <ele>287.57</ele>
        <time>2021-04-03T14:27:06Z</time>
      </trkpt>
      <trkpt lat="45.05828" lon="5.68211">
        <ele>289.01</ele>
        <time>2021-04-03T14:27:29Z</time>
      </trkpt>
      <trkpt lat="45.05843" lon="5.68187">
        <ele>291.9</ele>
        <time>2021-04-03T14:27:51Z</time>
      </trkpt>
      <trkpt lat="45.05852" lon="5.68174">
        <ele>294.78</ele>
        <time>2021-04-03T14:28:06Z</time>
      </trkpt>
      <trkpt lat="45.05864" lon="5.68148">
        <ele>294.78</ele>
        <time>2021-04-03T14:28:28Z</time>
      </trkpt>
      <trkpt lat="45.05876" lon="5.6812">
        <ele>295.26</ele>
        <time>2021-04-03T14:28:51Z</time>
      </trkpt>
      <trkpt lat="45.05889" lon="5.68096">
        <ele>298.15</ele>
        <time>2021-04-03T14:29:12Z</time>
      </trkpt>
      <trkpt lat="45.05894" lon="5.68088">
        <ele>300.55</ele>
        <time>2021-04-03T14:29:29Z</time>
      </trkpt>
      <trkpt lat="45.05901" lon="5.68064">
        <ele>299.59</ele>
        <time>2021-04-03T14:29:49Z</time>
      </trkpt>
      <trkpt lat="45.05904" lon="5.68062">
        <ele>300.07</ele>
        <time>2021-04-03T14:30:07Z</time>
      </trkpt>
      <trkpt lat="45.05902" lon="5.68062">
        <ele>298.63</ele>
        <time>2021-04-03T14:30:38Z</time>
      </trkpt>
      <trkpt lat="45.05909" lon="5.68052">
        <ele>296.7</ele>
        <time>2021-04-03T14:30:57Z</time>
      </trkpt>
      <trkpt lat="45.05909" lon="5.68026">
        <ele>294.3</ele>
        <time>2021-04-03T14:31:19Z</time>
      </trkpt>
      <trkpt lat="45.05923" lon="5.68007">
        <ele>293.82</ele>
        <time>2021-04-03T14:31:40Z</time>
      </trkpt>
      <trkpt lat="45.05938" lon="5.67981">
        <ele>293.34</ele>
        <time>2021-04-03T14:32:03Z</time>
      </trkpt>
      <trkpt lat="45.05947" lon="5.67965">
        <ele>292.38</ele>
        <time>2021-04-03T14:32:22Z</time>
      </trkpt>
      <trkpt lat="45.05958" lon="5.67943">
        <ele>292.38</ele>
        <time>2021-04-03T14:32:42Z</time>
      </trkpt>
      <trkpt lat="45.05967" lon="5.67917">
        <ele>290.46</ele>
        <time>2021-04-03T14:33:04Z</time>
      </trkpt>
      <trkpt lat="45.05978" lon="5.6789">
        <ele>289.49</ele>
        <time>2021-04-03T14:33:26Z</time>
      </trkpt>
      <trkpt lat="45.05986" lon="5.67868">
        <ele>288.53</ele>
        <time>2021-04-03T14:33:45Z</time>
      </trkpt>
      <trkpt lat="45.05999" lon="5.67844">
        <ele>288.05</ele>
        <time>2021-04-03T14:34:06Z</time>
      </trkpt>
      <trkpt lat="45.06007" lon="5.67838">
        <ele>290.94</ele>
        <time>2021-04-03T14:34:12Z</time>
      </trkpt>
      <trkpt lat="45.06021" lon="5.67816">
        <ele>295.26</ele>
        <time>2021-04-03T14:34:33Z</time>
      </trkpt>
      <trkpt lat="45.0604" lon="5.678">
        <ele>294.3</ele>
        <time>2021-04-03T14:34:55Z</time>
      </trkpt>
      <trkpt lat="45.06066" lon="5.67785">
        <ele>295.26</ele>
        <time>2021-04-03T14:35:20Z</time>
      </trkpt>
      <trkpt lat="45.0609" lon="5.67771">
        <ele>296.7</ele>
        <time>2021-04-03T14:35:46Z</time>
      </trkpt>
      <trkpt lat="45.06113" lon="5.67757">
        <ele>296.22</ele>
        <time>2021-04-03T14:36:12Z</time>
      </trkpt>
      <trkpt lat="45.06134" lon="5.67745">
        <ele>295.26</ele>
        <time>2021-04-03T14:36:36Z</time>
      </trkpt>
      <trkpt lat="45.06161" lon="5.67733">
        <ele>294.78</ele>
        <time>2021-04-03T14:37:02Z</time>
      </trkpt>
      <trkpt lat="45.06186" lon="5.67722">
        <ele>295.26</ele>
        <time>2021-04-03T14:37:28Z</time>
      </trkpt>
      <trkpt lat="45.06209" lon="5.67711">
        <ele>296.7</ele>
        <time>2021-04-03T14:37:52Z</time>
      </trkpt>
      <trkpt lat="45.06233" lon="5.67693">
        <ele>297.67</ele>
        <time>2021-04-03T14:38:17Z</time>
      </trkpt>
      <trkpt lat="45.0625" lon="5.67669">
        <ele>298.63</ele>
        <time>2021-04-03T14:38:41Z</time>
      </trkpt>
      <trkpt lat="45.06262" lon="5.67649">
        <ele>301.03</ele>
        <time>2021-04-03T14:39:02Z</time>
      </trkpt>
      <trkpt lat="45.06274" lon="5.67659">
        <ele>302.47</ele>
        <time>2021-04-03T14:39:21Z</time>
      </trkpt>
      <trkpt lat="45.06286" lon="5.67662">
        <ele>301.99</ele>
        <time>2021-04-03T14:39:37Z</time>
      </trkpt>
      <trkpt lat="45.06309" lon="5.67657">
        <ele>301.03</ele>
        <time>2021-04-03T14:39:59Z</time>
      </trkpt>
      <trkpt lat="45.0633" lon="5.6767">
        <ele>299.59</ele>
        <time>2021-04-03T14:40:20Z</time>
      </trkpt>
      <trkpt lat="45.06351" lon="5.67678">
        <ele>298.15</ele>
        <time>2021-04-03T14:40:42Z</time>
      </trkpt>
      <trkpt lat="45.06372" lon="5.67697">
        <ele>296.7</ele>
        <time>2021-04-03T14:41:05Z</time>
      </trkpt>
      <trkpt lat="45.06392" lon="5.67712">
        <ele>296.22</ele>
        <time>2021-04-03T14:41:28Z</time>
      </trkpt>
      <trkpt lat="45.06417" lon="5.67718">
        <ele>295.74</ele>
        <time>2021-04-03T14:41:53Z</time>
      </trkpt>
      <trkpt lat="45.06437" lon="5.67727">
        <ele>295.26</ele>
        <time>2021-04-03T14:42:16Z</time>
      </trkpt>
      <trkpt lat="45.06459" lon="5.67737">
        <ele>296.7</ele>
        <time>2021-04-03T14:42:38Z</time>
      </trkpt>
      <trkpt lat="45.0648" lon="5.67748">
        <ele>297.18</ele>
        <time>2021-04-03T14:43:01Z</time>
      </trkpt>
      <trkpt lat="45.06502" lon="5.67758">
        <ele>297.67</ele>
        <time>2021-04-03T14:43:25Z</time>
      </trkpt>
      <trkpt lat="45.06523" lon="5.67771">
        <ele>297.67</ele>
        <time>2021-04-03T14:43:49Z</time>
      </trkpt>
      <trkpt lat="45.06543" lon="5.67782">
        <ele>297.67</ele>
        <time>2021-04-03T14:44:13Z</time>
      </trkpt>
      <trkpt lat="45.06563" lon="5.67805">
        <ele>296.22</ele>
        <time>2021-04-03T14:44:38Z</time>
      </trkpt>
      <trkpt lat="45.06578" lon="5.67825">
        <ele>295.74</ele>
        <time>2021-04-03T14:45:01Z</time>
      </trkpt>
      <trkpt lat="45.06597" lon="5.67844">
        <ele>295.26</ele>
        <time>2021-04-03T14:45:25Z</time>
      </trkpt>
      <trkpt lat="45.06618" lon="5.67866">
        <ele>294.78</ele>
        <time>2021-04-03T14:45:51Z</time>
      </trkpt>
      <trkpt lat="45.0664" lon="5.67892">
        <ele>296.7</ele>
        <time>2021-04-03T14:46:18Z</time>
      </trkpt>
      <trkpt lat="45.0666" lon="5.67921">
        <ele>295.26</ele>
        <time>2021-04-03T14:46:45Z</time>
      </trkpt>
      <trkpt lat="45.06677" lon="5.67938">
        <ele>292.86</ele>
        <time>2021-04-03T14:47:08Z</time>
      </trkpt>
      <trkpt lat="45.06693" lon="5.67956">
        <ele>291.9</ele>
        <time>2021-04-03T14:47:33Z</time>
      </trkpt>
      <trkpt lat="45.06708" lon="5.67975">
        <ele>292.38</ele>
        <time>2021-04-03T14:47:55Z</time>
      </trkpt>
      <trkpt lat="45.06716" lon="5.67986">
        <ele>293.34</ele>
        <time>2021-04-03T14:48:14Z</time>
      </trkpt>
      <trkpt lat="45.06723" lon="5.67998">
        <ele>293.34</ele>
        <time>2021-04-03T14:48:31Z</time>
      </trkpt>
      <trkpt lat="45.06729" lon="5.68013">
        <ele>294.78</ele>
        <time>2021-04-03T14:48:52Z</time>
      </trkpt>
      <trkpt lat="45.06734" lon="5.68037">
        <ele>296.7</ele>
        <time>2021-04-03T14:49:14Z</time>
      </trkpt>
      <trkpt lat="45.0674" lon="5.68063">
        <ele>296.22</ele>
        <time>2021-04-03T14:49:34Z</time>
      </trkpt>
      <trkpt lat="45.06745" lon="5.68081">
        <ele>297.67</ele>
        <time>2021-04-03T14:49:53Z</time>
      </trkpt>
      <trkpt lat="45.06754" lon="5.68115">
        <ele>296.22</ele>
        <time>2021-04-03T14:50:19Z</time>
      </trkpt>
      <trkpt lat="45.0676" lon="5.68149">
        <ele>292.38</ele>
        <time>2021-04-03T14:50:43Z</time>
      </trkpt>
      <trkpt lat="45.06764" lon="5.68172">
        <ele>291.42</ele>
        <time>2021-04-03T14:51:02Z</time>
      </trkpt>
      <trkpt lat="45.06777" lon="5.68191">
        <ele>292.86</ele>
        <time>2021-04-03T14:51:23Z</time>
      </trkpt>
      <trkpt lat="45.06801" lon="5.68192">
        <ele>291.9</ele>
        <time>2021-04-03T14:51:47Z</time>
      </trkpt>
      <trkpt lat="45.06819" lon="5.68174">
        <ele>290.94</ele>
        <time>2021-04-03T14:52:08Z</time>
      </trkpt>
      <trkpt lat="45.06831" lon="5.68152">
        <ele>289.49</ele>
        <time>2021-04-03T14:52:28Z</time>
      </trkpt>
      <trkpt lat="45.06846" lon="5.68129">
        <ele>287.09</ele>
        <time>2021-04-03T14:52:51Z</time>
      </trkpt>
      <trkpt lat="45.06861" lon="5.68114">
        <ele>283.25</ele>
        <time>2021-04-03T14:53:13Z</time>
      </trkpt>
      <trkpt lat="45.06891" lon="5.68102">
        <ele>283.25</ele>
        <time>2021-04-03T14:53:36Z</time>
      </trkpt>
      <trkpt lat="45.06913" lon="5.68088">
        <ele>287.57</ele>
        <time>2021-04-03T14:54:01Z</time>
      </trkpt>
      <trkpt lat="45.06935" lon="5.68081">
        <ele>293.34</ele>
        <time>2021-04-03T14:54:23Z</time>
      </trkpt>
      <trkpt lat="45.06956" lon="5.68077">
        <ele>292.86</ele>
        <time>2021-04-03T14:54:45Z</time>
      </trkpt>
      <trkpt lat="45.06976" lon="5.68085">
        <ele>289.49</ele>
        <time>2021-04-03T14:55:08Z</time>
      </trkpt>
      <trkpt lat="45.06996" lon="5.68089">
        <ele>290.46</ele>
        <time>2021-04-03T14:55:29Z</time>
      </trkpt>
      <trkpt lat="45.07006" lon="5.68095">
        <ele>290.94</ele>
        <time>2021-04-03T14:55:47Z</time>
      </trkpt>
      <trkpt lat="45.07025" lon="5.68096">
        <ele>290.46</ele>
        <time>2021-04-03T14:56:08Z</time>
      </trkpt>
      <trkpt lat="45.07044" lon="5.68104">
        <ele>289.97</ele>
        <time>2021-04-03T14:56:28Z</time>
      </trkpt>
      <trkpt lat="45.07065" lon="5.68107">
        <ele>289.97</ele>
        <time>2021-04-03T14:56:50Z</time>
      </trkpt>
      <trkpt lat="45.07089" lon="5.6811">
        <ele>287.09</ele>
        <time>2021-04-03T14:57:15Z</time>
      </trkpt>
      <trkpt lat="45.07114" lon="5.68111">
        <ele>288.05</ele>
        <time>2021-04-03T14:57:42Z</time>
      </trkpt>
      <trkpt lat="45.0714" lon="5.68111">
        <ele>289.01</ele>
        <time>2021-04-03T14:58:06Z</time>
      </trkpt>
      <trkpt lat="45.0716" lon="5.6811">
        <ele>288.05</ele>
        <time>2021-04-03T14:58:28Z</time>
      </trkpt>
      <trkpt lat="45.07192" lon="5.68109">
        <ele>287.09</ele>
        <time>2021-04-03T14:58:55Z</time>
      </trkpt>
      <trkpt lat="45.07222" lon="5.68103">
        <ele>284.69</ele>
        <time>2021-04-03T14:59:24Z</time>
      </trkpt>
      <trkpt lat="45.07238" lon="5.68096">
        <ele>282.28</ele>
        <time>2021-04-03T14:59:48Z</time>
      </trkpt>
      <trkpt lat="45.07262" lon="5.68084">
        <ele>279.88</ele>
        <time>2021-04-03T15:00:13Z</time>
      </trkpt>
      <trkpt lat="45.07271" lon="5.68063">
        <ele>274.11</ele>
        <time>2021-04-03T15:00:34Z</time>
      </trkpt>
      <trkpt lat="45.07282" lon="5.68033">
        <ele>268.35</ele>
        <time>2021-04-03T15:00:58Z</time>
      </trkpt>
      <trkpt lat="45.07305" lon="5.6802">
        <ele>264.02</ele>
        <time>2021-04-03T15:01:24Z</time>
      </trkpt>
      <trkpt lat="45.07316" lon="5.68017">
        <ele>264.02</ele>
        <time>2021-04-03T15:01:45Z</time>
      </trkpt>
      <trkpt lat="45.07332" lon="5.68027">
        <ele>261.62</ele>
        <time>2021-04-03T15:02:05Z</time>
      </trkpt>
      <trkpt lat="45.07349" lon="5.68044">
        <ele>264.02</ele>
        <time>2021-04-03T15:02:23Z</time>
      </trkpt>
      <trkpt lat="45.07365" lon="5.68063">
        <ele>266.9</ele>
        <time>2021-04-03T15:02:44Z</time>
      </trkpt>
      <trkpt lat="45.07388" lon="5.68082">
        <ele>272.19</ele>
        <time>2021-04-03T15:03:07Z</time>
      </trkpt>
      <trkpt lat="45.07407" lon="5.68097">
        <ele>277.48</ele>
        <time>2021-04-03T15:03:27Z</time>
      </trkpt>
      <trkpt lat="45.07425" lon="5.68112">
        <ele>275.56</ele>
        <time>2021-04-03T15:03:50Z</time>
      </trkpt>
      <trkpt lat="45.07449" lon="5.68133">
        <ele>276.52</ele>
        <time>2021-04-03T15:04:15Z</time>
      </trkpt>
      <trkpt lat="45.07472" lon="5.68154">
        <ele>277.96</ele>
        <time>2021-04-03T15:04:40Z</time>
      </trkpt>
      <trkpt lat="45.07487" lon="5.68163">
        <ele>275.56</ele>
        <time>2021-04-03T15:05:00Z</time>
      </trkpt>
      <trkpt lat="45.07505" lon="5.68175">
        <ele>270.75</ele>
        <time>2021-04-03T15:05:21Z</time>
      </trkpt>
      <trkpt lat="45.07522" lon="5.68186">
        <ele>266.42</ele>
        <time>2021-04-03T15:05:43Z</time>
      </trkpt>
      <trkpt lat="45.07537" lon="5.68197">
        <ele>257.77</ele>
        <time>2021-04-03T15:06:04Z</time>
      </trkpt>
      <trkpt lat="45.07564" lon="5.68209">
        <ele>260.17</ele>
        <time>2021-04-03T15:06:26Z</time>
      </trkpt>
      <trkpt lat="45.07582" lon="5.68215">
        <ele>257.77</ele>
        <time>2021-04-03T15:06:48Z</time>
      </trkpt>
      <trkpt lat="45.0761" lon="5.68237">
        <ele>262.1</ele>
        <time>2021-04-03T15:07:14Z</time>
      </trkpt>
      <trkpt lat="45.07632" lon="5.68249">
        <ele>260.65</ele>
        <time>2021-04-03T15:07:40Z</time>
      </trkpt>
      <trkpt lat="45.07645" lon="5.68255">
        <ele>257.77</ele>
        <time>2021-04-03T15:07:59Z</time>
      </trkpt>
      <trkpt lat="45.07656" lon="5.68264">
        <ele>252.48</ele>
        <time>2021-04-03T15:08:19Z</time>
      </trkpt>
      <trkpt lat="45.07679" lon="5.68276">
        <ele>252.96</ele>
        <time>2021-04-03T15:08:38Z</time>
      </trkpt>
      <trkpt lat="45.07703" lon="5.68293">
        <ele>264.02</ele>
        <time>2021-04-03T15:09:01Z</time>
      </trkpt>
      <trkpt lat="45.07716" lon="5.68299">
        <ele>272.19</ele>
        <time>2021-04-03T15:09:19Z</time>
      </trkpt>
      <trkpt lat="45.0772" lon="5.68301">
        <ele>275.07</ele>
        <time>2021-04-03T15:09:23Z</time>
      </trkpt>
      <trkpt lat="45.07738" lon="5.68311">
        <ele>282.28</ele>
        <time>2021-04-03T15:09:38Z</time>
      </trkpt>
      <trkpt lat="45.0775" lon="5.68321">
        <ele>282.77</ele>
        <time>2021-04-03T15:09:53Z</time>
      </trkpt>
      <trkpt lat="45.07754" lon="5.68338">
        <ele>285.65</ele>
        <time>2021-04-03T15:10:09Z</time>
      </trkpt>
      <trkpt lat="45.07752" lon="5.68341">
        <ele>284.21</ele>
        <time>2021-04-03T15:10:35Z</time>
      </trkpt>
      <trkpt lat="45.07751" lon="5.68338">
        <ele>283.73</ele>
        <time>2021-04-03T15:10:54Z</time>
      </trkpt>
    </trkseg>
  </trk>
</gpx>